sensor_id;sensor_type;location;lat;lon;timestamp;P1;durP1;ratioP1;P2;durP2;ratioP2
56999;SDS011;42891;50.006;21.964;2023-04-15T00:01:09;2.00;;;1.80;;
56999;SDS011;42891;50.006;21.964;2023-04-15T00:05:10;2.42;;;2.20;;
56999;SDS011;42891;50.006;21.964;2023-04-15T00:09:11;3.88;;;2.00;;
56999;SDS011;42891;50.006;21.964;2023-04-15T00:13:11;4.13;;;2.22;;
56999;SDS011;42891;50.006;21.964;2023-04-15T00:17:11;2.50;;;2.10;;
56999;SDS011;42891;50.006;21.964;2023-04-15T00:21:12;2.60;;;2.35;;
56999;SDS011;42891;50.006;21.964;2023-04-15T00:25:12;2.60;;;2.00;;
56999;SDS011;42891;50.006;21.964;2023-04-15T00:29:14;3.72;;;1.83;;
56999;SDS011;42891;50.006;21.964;2023-04-15T00:33:14;2.10;;;1.90;;
56999;SDS011;42891;50.006;21.964;2023-04-15T00:37:17;3.08;;;2.10;;
56999;SDS011;42891;50.006;21.964;2023-04-15T00:41:18;2.33;;;2.13;;
56999;SDS011;42891;50.006;21.964;2023-04-15T00:45:19;2.92;;;1.80;;
56999;SDS011;42891;50.006;21.964;2023-04-15T00:49:20;2.10;;;1.90;;
56999;SDS011;42891;50.006;21.964;2023-04-15T00:53:22;4.72;;;1.70;;
56999;SDS011;42891;50.006;21.964;2023-04-15T00:57:22;2.20;;;2.00;;
56999;SDS011;42891;50.006;21.964;2023-04-15T01:01:23;2.60;;;2.05;;
56999;SDS011;42891;50.006;21.964;2023-04-15T01:05:25;2.03;;;1.90;;
56999;SDS011;42891;50.006;21.964;2023-04-15T01:09:25;3.22;;;1.85;;
56999;SDS011;42891;50.006;21.964;2023-04-15T01:13:26;5.05;;;2.35;;
56999;SDS011;42891;50.006;21.964;2023-04-15T01:17:27;2.15;;;1.95;;
56999;SDS011;42891;50.006;21.964;2023-04-15T01:21:27;2.27;;;2.07;;
56999;SDS011;42891;50.006;21.964;2023-04-15T01:25:32;2.67;;;2.47;;
56999;SDS011;42891;50.006;21.964;2023-04-15T01:29:35;3.07;;;2.77;;
56999;SDS011;42891;50.006;21.964;2023-04-15T01:33:37;3.22;;;2.28;;
56999;SDS011;42891;50.006;21.964;2023-04-15T01:37:39;2.83;;;2.45;;
56999;SDS011;42891;50.006;21.964;2023-04-15T01:41:40;4.13;;;2.40;;
56999;SDS011;42891;50.006;21.964;2023-04-15T01:45:41;3.15;;;2.22;;
56999;SDS011;42891;50.006;21.964;2023-04-15T01:49:41;4.43;;;2.13;;
56999;SDS011;42891;50.006;21.964;2023-04-15T01:53:42;2.72;;;2.15;;
56999;SDS011;42891;50.006;21.964;2023-04-15T01:57:42;3.88;;;2.10;;
56999;SDS011;42891;50.006;21.964;2023-04-15T02:01:42;2.25;;;1.80;;
56999;SDS011;42891;50.006;21.964;2023-04-15T02:05:44;4.70;;;2.45;;
56999;SDS011;42891;50.006;21.964;2023-04-15T02:09:44;3.90;;;2.15;;
56999;SDS011;42891;50.006;21.964;2023-04-15T02:13:45;2.50;;;1.80;;
56999;SDS011;42891;50.006;21.964;2023-04-15T02:17:45;4.97;;;2.05;;
56999;SDS011;42891;50.006;21.964;2023-04-15T02:21:49;1.52;;;1.42;;
56999;SDS011;42891;50.006;21.964;2023-04-15T02:25:50;1.77;;;1.50;;
56999;SDS011;42891;50.006;21.964;2023-04-15T02:29:50;2.28;;;2.08;;
56999;SDS011;42891;50.006;21.964;2023-04-15T02:33:51;1.45;;;1.35;;
56999;SDS011;42891;50.006;21.964;2023-04-15T02:37:51;1.85;;;1.38;;
56999;SDS011;42891;50.006;21.964;2023-04-15T02:41:52;2.75;;;1.60;;
56999;SDS011;42891;50.006;21.964;2023-04-15T02:45:52;1.55;;;1.45;;
56999;SDS011;42891;50.006;21.964;2023-04-15T02:49:52;1.90;;;1.67;;
56999;SDS011;42891;50.006;21.964;2023-04-15T02:53:53;1.40;;;1.30;;
56999;SDS011;42891;50.006;21.964;2023-04-15T02:57:53;1.93;;;1.50;;
56999;SDS011;42891;50.006;21.964;2023-04-15T03:01:53;2.65;;;1.70;;
56999;SDS011;42891;50.006;21.964;2023-04-15T03:05:59;2.38;;;1.50;;
56999;SDS011;42891;50.006;21.964;2023-04-15T03:10:00;1.60;;;1.50;;
56999;SDS011;42891;50.006;21.964;2023-04-15T03:14:00;1.95;;;1.50;;
56999;SDS011;42891;50.006;21.964;2023-04-15T03:18:00;1.55;;;1.35;;
56999;SDS011;42891;50.006;21.964;2023-04-15T03:22:00;2.17;;;1.40;;
56999;SDS011;42891;50.006;21.964;2023-04-15T03:26:01;1.70;;;1.52;;
56999;SDS011;42891;50.006;21.964;2023-04-15T03:30:02;2.70;;;1.70;;
56999;SDS011;42891;50.006;21.964;2023-04-15T03:34:03;3.50;;;1.80;;
56999;SDS011;42891;50.006;21.964;2023-04-15T03:38:03;2.40;;;1.70;;
56999;SDS011;42891;50.006;21.964;2023-04-15T03:42:03;2.58;;;1.95;;
56999;SDS011;42891;50.006;21.964;2023-04-15T03:46:04;2.10;;;1.90;;
56999;SDS011;42891;50.006;21.964;2023-04-15T03:50:04;4.07;;;2.20;;
56999;SDS011;42891;50.006;21.964;2023-04-15T03:54:06;2.17;;;1.75;;
56999;SDS011;42891;50.006;21.964;2023-04-15T03:58:06;1.75;;;1.63;;
56999;SDS011;42891;50.006;21.964;2023-04-15T04:02:06;3.85;;;1.60;;
56999;SDS011;42891;50.006;21.964;2023-04-15T04:06:07;2.23;;;1.60;;
56999;SDS011;42891;50.006;21.964;2023-04-15T04:10:07;1.90;;;1.70;;
56999;SDS011;42891;50.006;21.964;2023-04-15T04:14:08;2.00;;;1.80;;
56999;SDS011;42891;50.006;21.964;2023-04-15T04:18:08;3.80;;;1.70;;
56999;SDS011;42891;50.006;21.964;2023-04-15T04:22:09;1.52;;;1.33;;
56999;SDS011;42891;50.006;21.964;2023-04-15T04:26:09;3.58;;;1.63;;
56999;SDS011;42891;50.006;21.964;2023-04-15T04:30:10;2.67;;;1.80;;
56999;SDS011;42891;50.006;21.964;2023-04-15T04:34:10;3.25;;;2.20;;
56999;SDS011;42891;50.006;21.964;2023-04-15T04:38:11;4.63;;;3.05;;
56999;SDS011;42891;50.006;21.964;2023-04-15T04:42:11;4.65;;;3.42;;
56999;SDS011;42891;50.006;21.964;2023-04-15T04:46:11;4.63;;;2.97;;
56999;SDS011;42891;50.006;21.964;2023-04-15T04:50:12;6.72;;;4.38;;
56999;SDS011;42891;50.006;21.964;2023-04-15T04:54:12;6.55;;;4.72;;
56999;SDS011;42891;50.006;21.964;2023-04-15T04:58:12;7.60;;;4.80;;
56999;SDS011;42891;50.006;21.964;2023-04-15T05:02:13;9.20;;;4.82;;
56999;SDS011;42891;50.006;21.964;2023-04-15T05:06:13;6.93;;;4.63;;
56999;SDS011;42891;50.006;21.964;2023-04-15T05:10:14;8.00;;;4.80;;
56999;SDS011;42891;50.006;21.964;2023-04-15T05:14:16;8.45;;;5.30;;
56999;SDS011;42891;50.006;21.964;2023-04-15T05:18:16;7.45;;;4.20;;
56999;SDS011;42891;50.006;21.964;2023-04-15T05:22:17;6.03;;;3.72;;
56999;SDS011;42891;50.006;21.964;2023-04-15T05:26:17;3.97;;;2.95;;
56999;SDS011;42891;50.006;21.964;2023-04-15T05:30:18;6.80;;;3.70;;
56999;SDS011;42891;50.006;21.964;2023-04-15T05:34:18;4.53;;;2.90;;
56999;SDS011;42891;50.006;21.964;2023-04-15T05:38:18;5.88;;;3.40;;
56999;SDS011;42891;50.006;21.964;2023-04-15T05:42:19;4.22;;;2.80;;
56999;SDS011;42891;50.006;21.964;2023-04-15T05:46:20;5.20;;;2.85;;
56999;SDS011;42891;50.006;21.964;2023-04-15T05:50:21;4.13;;;3.00;;
56999;SDS011;42891;50.006;21.964;2023-04-15T05:54:21;4.33;;;2.50;;
56999;SDS011;42891;50.006;21.964;2023-04-15T05:58:22;2.97;;;2.20;;
56999;SDS011;42891;50.006;21.964;2023-04-15T06:02:22;4.90;;;2.10;;
56999;SDS011;42891;50.006;21.964;2023-04-15T06:06:22;2.83;;;2.05;;
56999;SDS011;42891;50.006;21.964;2023-04-15T06:10:23;2.83;;;1.90;;
56999;SDS011;42891;50.006;21.964;2023-04-15T06:14:23;7.32;;;2.03;;
56999;SDS011;42891;50.006;21.964;2023-04-15T06:18:23;5.47;;;2.33;;
56999;SDS011;42891;50.006;21.964;2023-04-15T06:22:24;3.08;;;2.05;;
56999;SDS011;42891;50.006;21.964;2023-04-15T06:26:25;3.58;;;2.30;;
56999;SDS011;42891;50.006;21.964;2023-04-15T06:30:25;3.72;;;2.22;;
56999;SDS011;42891;50.006;21.964;2023-04-15T06:34:25;3.17;;;2.17;;
56999;SDS011;42891;50.006;21.964;2023-04-15T06:38:26;3.53;;;2.60;;
56999;SDS011;42891;50.006;21.964;2023-04-15T06:42:26;5.15;;;2.28;;
56999;SDS011;42891;50.006;21.964;2023-04-15T06:46:27;2.65;;;1.92;;
56999;SDS011;42891;50.006;21.964;2023-04-15T06:50:27;5.50;;;2.22;;
56999;SDS011;42891;50.006;21.964;2023-04-15T06:54:27;2.13;;;1.80;;
56999;SDS011;42891;50.006;21.964;2023-04-15T06:58:28;3.58;;;1.65;;
56999;SDS011;42891;50.006;21.964;2023-04-15T07:02:28;2.03;;;1.67;;
56999;SDS011;42891;50.006;21.964;2023-04-15T07:06:28;6.50;;;1.98;;
56999;SDS011;42891;50.006;21.964;2023-04-15T07:10:29;3.78;;;2.00;;
56999;SDS011;42891;50.006;21.964;2023-04-15T07:14:29;7.47;;;2.22;;
56999;SDS011;42891;50.006;21.964;2023-04-15T07:18:29;5.20;;;2.17;;
56999;SDS011;42891;50.006;21.964;2023-04-15T07:22:30;4.22;;;2.10;;
56999;SDS011;42891;50.006;21.964;2023-04-15T07:26:30;6.07;;;2.20;;
56999;SDS011;42891;50.006;21.964;2023-04-15T07:30:30;3.42;;;2.17;;
56999;SDS011;42891;50.006;21.964;2023-04-15T07:34:31;6.65;;;2.10;;
56999;SDS011;42891;50.006;21.964;2023-04-15T07:38:31;3.92;;;2.30;;
56999;SDS011;42891;50.006;21.964;2023-04-15T07:42:32;3.72;;;2.05;;
56999;SDS011;42891;50.006;21.964;2023-04-15T07:46:33;3.13;;;1.67;;
56999;SDS011;42891;50.006;21.964;2023-04-15T07:50:33;2.95;;;1.83;;
56999;SDS011;42891;50.006;21.964;2023-04-15T07:54:34;3.38;;;1.90;;
56999;SDS011;42891;50.006;21.964;2023-04-15T07:58:34;2.22;;;1.60;;
56999;SDS011;42891;50.006;21.964;2023-04-15T08:02:35;4.63;;;1.70;;
56999;SDS011;42891;50.006;21.964;2023-04-15T08:06:35;4.25;;;1.85;;
56999;SDS011;42891;50.006;21.964;2023-04-15T08:10:38;7.93;;;3.03;;
56999;SDS011;42891;50.006;21.964;2023-04-15T08:14:39;4.25;;;1.90;;
56999;SDS011;42891;50.006;21.964;2023-04-15T08:18:39;4.03;;;2.13;;
56999;SDS011;42891;50.006;21.964;2023-04-15T08:22:40;5.95;;;2.40;;
56999;SDS011;42891;50.006;21.964;2023-04-15T08:26:40;2.72;;;2.00;;
56999;SDS011;42891;50.006;21.964;2023-04-15T08:30:41;4.32;;;2.88;;
56999;SDS011;42891;50.006;21.964;2023-04-15T08:34:41;4.85;;;2.58;;
56999;SDS011;42891;50.006;21.964;2023-04-15T08:38:43;2.67;;;2.38;;
56999;SDS011;42891;50.006;21.964;2023-04-15T08:42:44;5.95;;;2.63;;
56999;SDS011;42891;50.006;21.964;2023-04-15T08:46:48;6.95;;;2.78;;
56999;SDS011;42891;50.006;21.964;2023-04-15T08:50:49;4.95;;;2.50;;
56999;SDS011;42891;50.006;21.964;2023-04-15T08:54:50;4.03;;;2.00;;
56999;SDS011;42891;50.006;21.964;2023-04-15T08:58:55;2.97;;;2.03;;
56999;SDS011;42891;50.006;21.964;2023-04-15T09:02:57;5.97;;;2.95;;
56999;SDS011;42891;50.006;21.964;2023-04-15T09:06:58;4.10;;;2.15;;
56999;SDS011;42891;50.006;21.964;2023-04-15T09:10:59;5.20;;;2.17;;
56999;SDS011;42891;50.006;21.964;2023-04-15T09:15:00;2.88;;;1.95;;
56999;SDS011;42891;50.006;21.964;2023-04-15T09:19:11;2.42;;;1.73;;
56999;SDS011;42891;50.006;21.964;2023-04-15T09:23:20;2.65;;;2.00;;
56999;SDS011;42891;50.006;21.964;2023-04-15T09:27:20;5.05;;;4.55;;
56999;SDS011;42891;50.006;21.964;2023-04-15T09:31:28;3.80;;;2.60;;
56999;SDS011;42891;50.006;21.964;2023-04-15T09:35:30;4.45;;;2.72;;
56999;SDS011;42891;50.006;21.964;2023-04-15T09:39:46;3.73;;;2.30;;
56999;SDS011;42891;50.006;21.964;2023-04-15T09:43:48;3.70;;;2.25;;
56999;SDS011;42891;50.006;21.964;2023-04-15T09:47:49;3.72;;;2.30;;
56999;SDS011;42891;50.006;21.964;2023-04-15T09:51:56;3.60;;;2.15;;
56999;SDS011;42891;50.006;21.964;2023-04-15T09:55:59;2.00;;;1.80;;
56999;SDS011;42891;50.006;21.964;2023-04-15T10:00:04;1.83;;;1.63;;
56999;SDS011;42891;50.006;21.964;2023-04-15T10:08:07;3.88;;;1.60;;
56999;SDS011;42891;50.006;21.964;2023-04-15T10:12:08;2.88;;;1.90;;
56999;SDS011;42891;50.006;21.964;2023-04-15T10:16:10;3.58;;;1.90;;
56999;SDS011;42891;50.006;21.964;2023-04-15T10:20:13;2.70;;;2.20;;
56999;SDS011;42891;50.006;21.964;2023-04-15T10:24:14;2.60;;;1.70;;
56999;SDS011;42891;50.006;21.964;2023-04-15T10:28:15;5.47;;;2.60;;
56999;SDS011;42891;50.006;21.964;2023-04-15T10:32:19;5.90;;;2.42;;
56999;SDS011;42891;50.006;21.964;2023-04-15T10:36:21;3.90;;;1.70;;
56999;SDS011;42891;50.006;21.964;2023-04-15T10:40:31;3.50;;;1.80;;
56999;SDS011;42891;50.006;21.964;2023-04-15T10:44:32;1.83;;;1.60;;
56999;SDS011;42891;50.006;21.964;2023-04-15T10:48:35;2.88;;;2.13;;
56999;SDS011;42891;50.006;21.964;2023-04-15T10:52:36;3.05;;;2.10;;
56999;SDS011;42891;50.006;21.964;2023-04-15T10:56:43;2.70;;;1.85;;
56999;SDS011;42891;50.006;21.964;2023-04-15T11:00:48;12.18;;;2.30;;
56999;SDS011;42891;50.006;21.964;2023-04-15T11:04:54;7.30;;;1.98;;
56999;SDS011;42891;50.006;21.964;2023-04-15T11:08:59;4.80;;;2.03;;
56999;SDS011;42891;50.006;21.964;2023-04-15T11:13:03;12.68;;;3.28;;
56999;SDS011;42891;50.006;21.964;2023-04-15T11:17:09;6.07;;;2.80;;
56999;SDS011;42891;50.006;21.964;2023-04-15T11:21:10;3.83;;;2.55;;
56999;SDS011;42891;50.006;21.964;2023-04-15T11:25:10;3.13;;;2.15;;
56999;SDS011;42891;50.006;21.964;2023-04-15T11:29:41;2.67;;;1.98;;
56999;SDS011;42891;50.006;21.964;2023-04-15T11:33:52;3.88;;;2.13;;
56999;SDS011;42891;50.006;21.964;2023-04-15T11:37:54;73.60;;;15.43;;
56999;SDS011;42891;50.006;21.964;2023-04-15T11:41:55;11.73;;;3.50;;
56999;SDS011;42891;50.006;21.964;2023-04-15T11:45:56;13.13;;;5.20;;
56999;SDS011;42891;50.006;21.964;2023-04-15T11:50:12;14.98;;;5.00;;
56999;SDS011;42891;50.006;21.964;2023-04-15T11:54:17;6.95;;;3.50;;
56999;SDS011;42891;50.006;21.964;2023-04-15T11:58:22;8.90;;;3.78;;
56999;SDS011;42891;50.006;21.964;2023-04-15T12:02:30;31.48;;;9.23;;
56999;SDS011;42891;50.006;21.964;2023-04-15T12:06:32;57.78;;;20.48;;
56999;SDS011;42891;50.006;21.964;2023-04-15T12:14:38;7.57;;;3.00;;
56999;SDS011;42891;50.006;21.964;2023-04-15T12:18:39;8.55;;;5.07;;
56999;SDS011;42891;50.006;21.964;2023-04-15T12:22:39;6.60;;;4.07;;
56999;SDS011;42891;50.006;21.964;2023-04-15T12:26:44;6.75;;;3.40;;
56999;SDS011;42891;50.006;21.964;2023-04-15T12:30:49;5.93;;;3.83;;
56999;SDS011;42891;50.006;21.964;2023-04-15T12:34:50;3.25;;;3.00;;
56999;SDS011;42891;50.006;21.964;2023-04-15T12:38:52;3.13;;;2.72;;
56999;SDS011;42891;50.006;21.964;2023-04-15T12:42:52;2.55;;;2.30;;
56999;SDS011;42891;50.006;21.964;2023-04-15T12:46:53;3.77;;;2.50;;
56999;SDS011;42891;50.006;21.964;2023-04-15T12:50:53;2.45;;;2.17;;
56999;SDS011;42891;50.006;21.964;2023-04-15T12:54:54;3.30;;;2.30;;
56999;SDS011;42891;50.006;21.964;2023-04-15T12:58:54;3.13;;;2.00;;
56999;SDS011;42891;50.006;21.964;2023-04-15T13:02:54;4.03;;;2.00;;
56999;SDS011;42891;50.006;21.964;2023-04-15T13:06:55;3.13;;;2.60;;
56999;SDS011;42891;50.006;21.964;2023-04-15T13:10:55;3.17;;;2.22;;
56999;SDS011;42891;50.006;21.964;2023-04-15T13:14:56;3.75;;;2.28;;
56999;SDS011;42891;50.006;21.964;2023-04-15T13:18:57;5.70;;;3.07;;
56999;SDS011;42891;50.006;21.964;2023-04-15T13:22:58;3.58;;;2.72;;
56999;SDS011;42891;50.006;21.964;2023-04-15T13:26:58;5.03;;;3.80;;
56999;SDS011;42891;50.006;21.964;2023-04-15T13:30:59;3.33;;;2.60;;
56999;SDS011;42891;50.006;21.964;2023-04-15T13:34:59;3.42;;;2.20;;
56999;SDS011;42891;50.006;21.964;2023-04-15T13:39:00;3.25;;;2.30;;
56999;SDS011;42891;50.006;21.964;2023-04-15T13:43:00;3.17;;;2.10;;
56999;SDS011;42891;50.006;21.964;2023-04-15T13:47:02;4.88;;;3.17;;
56999;SDS011;42891;50.006;21.964;2023-04-15T13:51:02;6.30;;;4.15;;
56999;SDS011;42891;50.006;21.964;2023-04-15T13:55:03;10.13;;;7.85;;
56999;SDS011;42891;50.006;21.964;2023-04-15T13:59:03;3.78;;;3.15;;
56999;SDS011;42891;50.006;21.964;2023-04-15T14:03:05;5.07;;;3.25;;
56999;SDS011;42891;50.006;21.964;2023-04-15T14:07:05;5.85;;;4.28;;
56999;SDS011;42891;50.006;21.964;2023-04-15T14:11:06;5.50;;;4.07;;
56999;SDS011;42891;50.006;21.964;2023-04-15T14:15:07;4.25;;;3.33;;
56999;SDS011;42891;50.006;21.964;2023-04-15T14:19:07;5.85;;;4.30;;
56999;SDS011;42891;50.006;21.964;2023-04-15T14:23:08;5.55;;;4.13;;
56999;SDS011;42891;50.006;21.964;2023-04-15T14:27:08;3.92;;;2.80;;
56999;SDS011;42891;50.006;21.964;2023-04-15T14:31:10;4.85;;;4.20;;
56999;SDS011;42891;50.006;21.964;2023-04-15T14:35:10;7.30;;;5.38;;
56999;SDS011;42891;50.006;21.964;2023-04-15T14:39:10;4.50;;;3.22;;
56999;SDS011;42891;50.006;21.964;2023-04-15T14:43:12;4.53;;;3.10;;
56999;SDS011;42891;50.006;21.964;2023-04-15T14:47:13;5.85;;;3.60;;
56999;SDS011;42891;50.006;21.964;2023-04-15T14:51:13;3.80;;;3.40;;
56999;SDS011;42891;50.006;21.964;2023-04-15T14:55:15;7.60;;;4.20;;
56999;SDS011;42891;50.006;21.964;2023-04-15T14:59:15;7.85;;;4.97;;
56999;SDS011;42891;50.006;21.964;2023-04-15T15:03:16;4.00;;;3.17;;
56999;SDS011;42891;50.006;21.964;2023-04-15T15:07:16;5.25;;;3.90;;
56999;SDS011;42891;50.006;21.964;2023-04-15T15:11:16;9.27;;;4.22;;
56999;SDS011;42891;50.006;21.964;2023-04-15T15:15:17;3.13;;;2.42;;
56999;SDS011;42891;50.006;21.964;2023-04-15T15:19:17;4.65;;;3.92;;
56999;SDS011;42891;50.006;21.964;2023-04-15T15:23:17;5.22;;;3.60;;
56999;SDS011;42891;50.006;21.964;2023-04-15T15:27:18;5.43;;;3.88;;
56999;SDS011;42891;50.006;21.964;2023-04-15T15:31:18;6.22;;;4.03;;
56999;SDS011;42891;50.006;21.964;2023-04-15T15:35:18;5.13;;;3.85;;
56999;SDS011;42891;50.006;21.964;2023-04-15T15:39:24;7.03;;;3.90;;
56999;SDS011;42891;50.006;21.964;2023-04-15T15:43:24;7.80;;;4.82;;
56999;SDS011;42891;50.006;21.964;2023-04-15T15:47:26;7.15;;;4.72;;
56999;SDS011;42891;50.006;21.964;2023-04-15T15:51:26;10.00;;;7.10;;
56999;SDS011;42891;50.006;21.964;2023-04-15T15:55:27;8.68;;;5.38;;
56999;SDS011;42891;50.006;21.964;2023-04-15T15:59:28;8.35;;;4.90;;
56999;SDS011;42891;50.006;21.964;2023-04-15T16:03:28;6.07;;;4.97;;
56999;SDS011;42891;50.006;21.964;2023-04-15T16:07:28;8.50;;;5.90;;
56999;SDS011;42891;50.006;21.964;2023-04-15T16:11:29;8.82;;;6.10;;
56999;SDS011;42891;50.006;21.964;2023-04-15T16:15:30;9.10;;;6.22;;
56999;SDS011;42891;50.006;21.964;2023-04-15T16:19:30;11.55;;;6.93;;
56999;SDS011;42891;50.006;21.964;2023-04-15T16:23:30;13.53;;;7.57;;
56999;SDS011;42891;50.006;21.964;2023-04-15T16:27:31;13.30;;;7.18;;
56999;SDS011;42891;50.006;21.964;2023-04-15T16:31:32;14.32;;;8.90;;
56999;SDS011;42891;50.006;21.964;2023-04-15T16:35:33;11.93;;;7.65;;
56999;SDS011;42891;50.006;21.964;2023-04-15T16:39:34;14.35;;;8.07;;
56999;SDS011;42891;50.006;21.964;2023-04-15T16:43:34;14.32;;;8.38;;
56999;SDS011;42891;50.006;21.964;2023-04-15T16:47:35;15.15;;;8.65;;
56999;SDS011;42891;50.006;21.964;2023-04-15T16:51:35;14.98;;;8.38;;
56999;SDS011;42891;50.006;21.964;2023-04-15T16:55:35;13.25;;;7.82;;
56999;SDS011;42891;50.006;21.964;2023-04-15T16:59:36;15.23;;;8.35;;
56999;SDS011;42891;50.006;21.964;2023-04-15T17:03:37;15.82;;;8.55;;
56999;SDS011;42891;50.006;21.964;2023-04-15T17:07:38;17.98;;;11.00;;
56999;SDS011;42891;50.006;21.964;2023-04-15T17:11:39;19.35;;;12.35;;
56999;SDS011;42891;50.006;21.964;2023-04-15T17:15:39;19.38;;;11.48;;
56999;SDS011;42891;50.006;21.964;2023-04-15T17:19:39;21.67;;;13.43;;
56999;SDS011;42891;50.006;21.964;2023-04-15T17:23:40;15.60;;;10.07;;
56999;SDS011;42891;50.006;21.964;2023-04-15T17:27:40;17.70;;;11.30;;
56999;SDS011;42891;50.006;21.964;2023-04-15T17:31:41;22.83;;;15.25;;
56999;SDS011;42891;50.006;21.964;2023-04-15T17:35:41;23.45;;;16.55;;
56999;SDS011;42891;50.006;21.964;2023-04-15T17:39:42;20.58;;;14.93;;
56999;SDS011;42891;50.006;21.964;2023-04-15T17:43:42;26.77;;;18.15;;
56999;SDS011;42891;50.006;21.964;2023-04-15T17:47:43;26.55;;;17.77;;
56999;SDS011;42891;50.006;21.964;2023-04-15T17:51:43;33.22;;;19.83;;
56999;SDS011;42891;50.006;21.964;2023-04-15T17:55:45;25.08;;;15.57;;
56999;SDS011;42891;50.006;21.964;2023-04-15T17:59:46;32.53;;;19.40;;
56999;SDS011;42891;50.006;21.964;2023-04-15T18:03:47;35.28;;;19.77;;
56999;SDS011;42891;50.006;21.964;2023-04-15T18:07:49;33.60;;;20.38;;
56999;SDS011;42891;50.006;21.964;2023-04-15T18:11:50;52.70;;;27.75;;
56999;SDS011;42891;50.006;21.964;2023-04-15T18:15:50;49.67;;;25.80;;
56999;SDS011;42891;50.006;21.964;2023-04-15T18:19:51;42.72;;;21.25;;
56999;SDS011;42891;50.006;21.964;2023-04-15T18:23:51;40.53;;;21.00;;
56999;SDS011;42891;50.006;21.964;2023-04-15T18:27:53;30.08;;;17.73;;
56999;SDS011;42891;50.006;21.964;2023-04-15T18:31:53;33.70;;;17.02;;
56999;SDS011;42891;50.006;21.964;2023-04-15T18:35:54;28.50;;;14.85;;
56999;SDS011;42891;50.006;21.964;2023-04-15T18:39:56;40.45;;;17.58;;
56999;SDS011;42891;50.006;21.964;2023-04-15T18:43:56;24.25;;;14.95;;
56999;SDS011;42891;50.006;21.964;2023-04-15T18:47:57;20.80;;;13.60;;
56999;SDS011;42891;50.006;21.964;2023-04-15T18:51:57;24.15;;;13.90;;
56999;SDS011;42891;50.006;21.964;2023-04-15T18:55:58;19.75;;;11.40;;
56999;SDS011;42891;50.006;21.964;2023-04-15T19:00:01;13.60;;;9.25;;
56999;SDS011;42891;50.006;21.964;2023-04-15T19:04:02;17.40;;;11.25;;
56999;SDS011;42891;50.006;21.964;2023-04-15T19:08:02;21.55;;;12.02;;
56999;SDS011;42891;50.006;21.964;2023-04-15T19:12:03;21.20;;;12.43;;
56999;SDS011;42891;50.006;21.964;2023-04-15T19:16:04;18.75;;;11.90;;
56999;SDS011;42891;50.006;21.964;2023-04-15T19:20:04;18.27;;;11.68;;
56999;SDS011;42891;50.006;21.964;2023-04-15T19:24:05;16.45;;;11.13;;
56999;SDS011;42891;50.006;21.964;2023-04-15T19:28:05;19.88;;;12.02;;
56999;SDS011;42891;50.006;21.964;2023-04-15T19:32:06;24.67;;;15.23;;
56999;SDS011;42891;50.006;21.964;2023-04-15T19:36:06;26.23;;;15.80;;
56999;SDS011;42891;50.006;21.964;2023-04-15T19:40:06;22.50;;;14.60;;
56999;SDS011;42891;50.006;21.964;2023-04-15T19:44:08;20.77;;;13.00;;
56999;SDS011;42891;50.006;21.964;2023-04-15T19:48:11;22.52;;;14.13;;
56999;SDS011;42891;50.006;21.964;2023-04-15T19:52:12;16.30;;;11.02;;
56999;SDS011;42891;50.006;21.964;2023-04-15T19:56:13;19.55;;;11.32;;
56999;SDS011;42891;50.006;21.964;2023-04-15T20:00:13;15.95;;;10.50;;
56999;SDS011;42891;50.006;21.964;2023-04-15T20:04:13;14.85;;;9.75;;
56999;SDS011;42891;50.006;21.964;2023-04-15T20:08:14;21.45;;;12.57;;
56999;SDS011;42891;50.006;21.964;2023-04-15T20:12:14;17.05;;;10.90;;
56999;SDS011;42891;50.006;21.964;2023-04-15T20:16:15;20.38;;;12.35;;
56999;SDS011;42891;50.006;21.964;2023-04-15T20:20:15;67.43;;;33.35;;
56999;SDS011;42891;50.006;21.964;2023-04-15T20:24:15;85.30;;;46.72;;
56999;SDS011;42891;50.006;21.964;2023-04-15T20:28:16;62.35;;;36.65;;
56999;SDS011;42891;50.006;21.964;2023-04-15T20:32:18;47.45;;;30.50;;
56999;SDS011;42891;50.006;21.964;2023-04-15T20:36:18;33.92;;;24.45;;
56999;SDS011;42891;50.006;21.964;2023-04-15T20:40:18;40.97;;;26.73;;
56999;SDS011;42891;50.006;21.964;2023-04-15T20:44:19;36.17;;;23.13;;
56999;SDS011;42891;50.006;21.964;2023-04-15T20:48:19;32.40;;;21.35;;
56999;SDS011;42891;50.006;21.964;2023-04-15T20:52:20;33.20;;;21.73;;
56999;SDS011;42891;50.006;21.964;2023-04-15T20:56:20;43.38;;;31.35;;
56999;SDS011;42891;50.006;21.964;2023-04-15T21:00:21;48.47;;;34.15;;
56999;SDS011;42891;50.006;21.964;2023-04-15T21:04:21;72.35;;;43.13;;
56999;SDS011;42891;50.006;21.964;2023-04-15T21:08:23;73.80;;;43.90;;
56999;SDS011;42891;50.006;21.964;2023-04-15T21:12:28;52.10;;;31.03;;
56999;SDS011;42891;50.006;21.964;2023-04-15T21:16:28;40.78;;;23.63;;
56999;SDS011;42891;50.006;21.964;2023-04-15T21:20:30;38.55;;;24.00;;
56999;SDS011;42891;50.006;21.964;2023-04-15T21:24:31;41.13;;;24.88;;
56999;SDS011;42891;50.006;21.964;2023-04-15T21:28:31;34.60;;;21.30;;
56999;SDS011;42891;50.006;21.964;2023-04-15T21:32:31;38.17;;;24.98;;
56999;SDS011;42891;50.006;21.964;2023-04-15T21:36:32;37.70;;;24.48;;
56999;SDS011;42891;50.006;21.964;2023-04-15T21:40:32;37.13;;;23.02;;
56999;SDS011;42891;50.006;21.964;2023-04-15T21:44:33;33.88;;;22.38;;
56999;SDS011;42891;50.006;21.964;2023-04-15T21:48:33;31.65;;;21.50;;
56999;SDS011;42891;50.006;21.964;2023-04-15T21:52:34;32.20;;;21.42;;
56999;SDS011;42891;50.006;21.964;2023-04-15T21:56:34;37.70;;;24.77;;
56999;SDS011;42891;50.006;21.964;2023-04-15T22:00:35;35.58;;;22.02;;
56999;SDS011;42891;50.006;21.964;2023-04-15T22:04:36;30.30;;;18.80;;
56999;SDS011;42891;50.006;21.964;2023-04-15T22:08:36;30.02;;;19.52;;
56999;SDS011;42891;50.006;21.964;2023-04-15T22:12:39;26.67;;;18.10;;
56999;SDS011;42891;50.006;21.964;2023-04-15T22:16:40;24.75;;;16.13;;
56999;SDS011;42891;50.006;21.964;2023-04-15T22:20:41;25.08;;;16.15;;
56999;SDS011;42891;50.006;21.964;2023-04-15T22:24:41;23.00;;;15.13;;
56999;SDS011;42891;50.006;21.964;2023-04-15T22:28:41;22.17;;;15.13;;
56999;SDS011;42891;50.006;21.964;2023-04-15T22:32:42;24.83;;;14.97;;
56999;SDS011;42891;50.006;21.964;2023-04-15T22:36:42;18.10;;;12.82;;
56999;SDS011;42891;50.006;21.964;2023-04-15T22:40:44;17.63;;;11.27;;
56999;SDS011;42891;50.006;21.964;2023-04-15T22:44:45;15.80;;;10.77;;
56999;SDS011;42891;50.006;21.964;2023-04-15T22:48:45;15.32;;;10.23;;
56999;SDS011;42891;50.006;21.964;2023-04-15T22:52:45;15.80;;;10.00;;
56999;SDS011;42891;50.006;21.964;2023-04-15T22:56:47;13.45;;;9.95;;
56999;SDS011;42891;50.006;21.964;2023-04-15T23:00:47;13.10;;;9.13;;
56999;SDS011;42891;50.006;21.964;2023-04-15T23:04:48;12.90;;;7.57;;
56999;SDS011;42891;50.006;21.964;2023-04-15T23:08:49;13.77;;;8.63;;
56999;SDS011;42891;50.006;21.964;2023-04-15T23:12:49;12.07;;;8.48;;
56999;SDS011;42891;50.006;21.964;2023-04-15T23:16:49;13.50;;;8.40;;
56999;SDS011;42891;50.006;21.964;2023-04-15T23:20:50;14.57;;;9.47;;
56999;SDS011;42891;50.006;21.964;2023-04-15T23:24:50;14.90;;;9.52;;
56999;SDS011;42891;50.006;21.964;2023-04-15T23:28:50;14.95;;;9.88;;
56999;SDS011;42891;50.006;21.964;2023-04-15T23:32:51;13.55;;;9.13;;
56999;SDS011;42891;50.006;21.964;2023-04-15T23:36:51;12.52;;;9.02;;
56999;SDS011;42891;50.006;21.964;2023-04-15T23:40:51;14.18;;;8.98;;
56999;SDS011;42891;50.006;21.964;2023-04-15T23:44:52;13.55;;;9.30;;